METAR Data
IDs: Format: Raw Decoded Include TAF

Data at: 0931 UTC 10 Dec 2022

KRHV 100555Z 15008KT 10SM SCT030 BKN045 12/08 A3004 RMK LAST